Eagle, Alaska
Current Conditions -  °F | °C
As of 12:53 AM on Monday 22 Dec 2014 (Local Time) from PAEG Reporting Station
Scattered Clouds Scattered Clouds  
Wind Chill:   Ceiling: Unl
Heat Index:   Visibility: 10mi
Dew Point:   Wind: 0mph
Humidity: 80%   Direction: NA
Pressure: 29.57"   Gusts: NA
Location:  64.78°N, 141.21°W
Report Text: PAEG 220953Z AUTO 00000KT 10SM SCT038 M14/M17 A2957 RMK AO2 SLP033 T11441172 TSNO
Loading
Personal Weather Stations






























Interactive Weather Map New forecast layout! Learn more

10-Day Weather Forecast

Advertisements
Track Severe Weather on mobile